Wednesday, January 17, 2018, 6:29 AM EST
Back to Local

KMMU, Morristown Municipal

Location: Morristown, NJ, United States Lat: 40.8
Local Time: 6:29 AM EST (11:29 GMT) Lon: -74.417
Time Zone: US/Eastern Elev: 187 ft

Show me the last for .
Show Decoded

2018-01-17 06:15 METAR KMMU 171115Z AUTO 00000KT 2SM -SN BKN006 BKN010 OVC018 00/00 A3027 RMK AO2
                 =
2018-01-17 05:55 METAR KMMU 171055Z AUTO 36003KT 1 1/2SM -SN SCT006 OVC016 00/00 A3027 RMK AO2 =
2018-01-17 05:35 METAR KMMU 171035Z AUTO 00000KT 1 1/4SM -SN SCT006 OVC012 00/00 A3026 RMK AO2
                 P0002 =
2018-01-17 05:15 METAR KMMU 171015Z AUTO 34005KT 2SM -SN OVC012 00/00 A3026 RMK AO2 P0001 =
2018-01-17 04:55 METAR KMMU 170955Z AUTO 32003KT 3SM -SN OVC010 01/01 A3026 RMK AO2 =
2018-01-17 04:35 METAR KMMU 170935Z AUTO 32004KT 3SM RA OVC008 01/01 A3026 RMK AO2 P0002 =
2018-01-17 04:15 METAR KMMU 170915Z AUTO 00000KT 4SM -RA OVC008 01/01 A3026 RMK AO2 P0001 =
2018-01-17 03:55 METAR KMMU 170855Z AUTO 00000KT 4SM UP OVC008 01/01 A3026 RMK AO2 =
2018-01-17 03:35 METAR KMMU 170835Z AUTO 00000KT 4SM UP OVC008 01/01 A3027 RMK AO2 P0001 =
2018-01-17 03:15 METAR KMMU 170815Z AUTO 00000KT 4SM UP OVC008 01/01 A3028 RMK AO2 P0001 =
2018-01-17 02:55 METAR KMMU 170755Z AUTO 00000KT 4SM UP OVC010 00/00 A3028 RMK AO2 =
2018-01-17 02:35 METAR KMMU 170735Z AUTO 00000KT 5SM UP OVC010 00/00 A3029 RMK AO2 =
2018-01-17 02:15 METAR KMMU 170715Z AUTO 00000KT 5SM UP OVC010 00/00 A3029 RMK AO2 =
2018-01-17 01:55 METAR KMMU 170655Z AUTO 00000KT 5SM UP BKN012 OVC017 00/00 A3029 RMK AO2 =
2018-01-17 01:35 METAR KMMU 170635Z AUTO 00000KT 5SM UP SCT010 OVC019 00/M01 A3030 RMK AO2 =
2018-01-17 01:15 METAR KMMU 170615Z AUTO 00000KT 7SM UP BKN010 OVC028 00/M02 A3030 RMK AO2 =
2018-01-17 00:55 METAR KMMU 170555Z AUTO 00000KT 10SM UP SCT024 BKN030 OVC043 00/M02 A3030 RMK
                 AO2 =
2018-01-17 00:35 METAR KMMU 170535Z AUTO 00000KT 10SM -DZ BKN048 OVC060 00/M02 A3031 RMK AO2 =
2018-01-17 00:15 METAR KMMU 170515Z AUTO 00000KT 10SM SCT042 BKN060 OVC070 00/M03 A3032 RMK AO2 =
2018-01-16 23:55 METAR KMMU 170455Z AUTO 00000KT 10SM OVC040 00/M03 A3033 RMK AO2 =
2018-01-16 23:35 METAR KMMU 170435Z AUTO 01003KT 10SM OVC040 00/M03 A3034 RMK AO2 =
2018-01-16 23:15 METAR KMMU 170415Z AUTO 03003KT 10SM SCT028 OVC036 00/M03 A3034 RMK AO2 =
2018-01-16 22:55 METAR KMMU 170355Z AUTO 00000KT 10SM SCT028 OVC036 00/M03 A3036 RMK AO2 =
2018-01-16 22:35 METAR KMMU 170335Z AUTO 00000KT 10SM BKN028 OVC034 00/M03 A3036 RMK AO2 =
2018-01-16 22:15 METAR KMMU 170315Z AUTO 00000KT 10SM OVC031 00/M03 A3037 RMK AO2 =
2018-01-16 21:45 METAR KMMU 170245Z 00000KT 7SM OVC029 00/M03 A3038 =
2018-01-16 20:45 METAR KMMU 170145Z 00000KT 7SM SCT020 SCT024 M01/M03 A3039 =
2018-01-16 19:45 METAR KMMU 170045Z 04003KT 7SM BKN026 00/M03 A3040 =
2018-01-16 18:45 METAR KMMU 162345Z 00000KT 7SM OVC013 00/M03 A3042 =
2018-01-16 17:45 METAR KMMU 162245Z 00000KT 7SM OVC013 00/M04 A3041 =
2018-01-16 16:45 METAR KMMU 162145Z COR 02004KT 7SM HZ BKN014 OVC019 01/M04 A3041 =
2018-01-16 15:45 METAR KMMU 162045Z 03004KT 7SM HZ OVC016 01/M04 A3042 =
2018-01-16 14:45 METAR KMMU 161945Z 00000KT 10SM HZ SCT029 BKN070 01/M04 A3042 =
2018-01-16 13:45 METAR KMMU 161845Z 00000KT 7SM SCT029 OVC070 01/M04 A3043 =
2018-01-16 12:45 METAR KMMU 161745Z 00000KT 7NM SCT020 OVC030 M01/M04 A3045 =
2018-01-16 11:45 METAR KMMU 161645Z 00000KT 7NM SCT020 OVC030 M01/M05 A3048 =
2018-01-16 10:45 METAR KMMU 161545Z 00000KT 7NM OVC030 M02/M05 A3051 =
2018-01-16 09:45 METAR KMMU 161445Z 00000KT 7NM OVC030 M03/M06 A3051 =
2018-01-16 08:45 METAR KMMU 161345Z 00000KT 5NM -SN OVC030 M04/M07 A3051 =
2018-01-16 08:30 METAR KMMU 161330Z 02003KT 4SM -SN OVC030 M04/M07 A3051 =
2018-01-16 08:09 METAR KMMU 161309Z 02003KT 2 1/2 SM -SN OVC011 M04/M07 A3051 =
2018-01-16 08:08 METAR KMMU 161308Z 02003KT 2 1/2 SM OVC011 M04/M07 A3051 =
2018-01-16 07:45 METAR KMMU 161245Z 02003KT 10SM OVC011 M04/M07 A3052 =
2018-01-16 06:45 METAR KMMU 161145Z 02003KT 10SM OVC013 M04/M07 A3051 =
2018-01-16 06:35 METAR KMMU 161135Z AUTO 00000KT 10SM OVC013 M04/M07 A3050 RMK AO2 =

Support USWX by starting your Amazon purchase here.